sensor_id;sensor_type;location;lat;lon;timestamp;temperature;humidity
45008;DHT22;30743;52.008;5.644;2023-02-28T00:00:07;6.20;99.90
45008;DHT22;30743;52.008;5.644;2023-02-28T00:02:40;6.00;99.90
45008;DHT22;30743;52.008;5.644;2023-02-28T00:05:07;6.00;99.90
45008;DHT22;30743;52.008;5.644;2023-02-28T00:07:34;5.90;99.90
45008;DHT22;30743;52.008;5.644;2023-02-28T00:09:59;6.10;99.90
45008;DHT22;30743;52.008;5.644;2023-02-28T00:12:25;6.30;99.90
45008;DHT22;30743;52.008;5.644;2023-02-28T00:14:51;5.50;99.90
45008;DHT22;30743;52.008;5.644;2023-02-28T00:17:17;6.40;99.90
45008;DHT22;30743;52.008;5.644;2023-02-28T00:19:55;6.50;99.90
45008;DHT22;30743;52.008;5.644;2023-02-28T00:22:21;6.70;99.90
45008;DHT22;30743;52.008;5.644;2023-02-28T00:24:47;6.80;99.90
45008;DHT22;30743;52.008;5.644;2023-02-28T00:27:13;7.00;99.90
45008;DHT22;30743;52.008;5.644;2023-02-28T00:29:39;6.90;99.90
45008;DHT22;30743;52.008;5.644;2023-02-28T00:32:06;6.80;99.90
45008;DHT22;30743;52.008;5.644;2023-02-28T00:34:31;6.70;99.90
45008;DHT22;30743;52.008;5.644;2023-02-28T00:37:06;6.60;99.90
45008;DHT22;30743;52.008;5.644;2023-02-28T00:39:35;6.80;99.90
45008;DHT22;30743;52.008;5.644;2023-02-28T00:42:02;6.70;99.90
45008;DHT22;30743;52.008;5.644;2023-02-28T00:44:28;6.70;99.90
45008;DHT22;30743;52.008;5.644;2023-02-28T00:46:54;6.70;99.90
45008;DHT22;30743;52.008;5.644;2023-02-28T00:49:19;6.70;99.90
45008;DHT22;30743;52.008;5.644;2023-02-28T00:51:46;6.70;99.90
45008;DHT22;30743;52.008;5.644;2023-02-28T00:54:11;6.70;99.90
45008;DHT22;30743;52.008;5.644;2023-02-28T00:56:37;6.70;99.90
45008;DHT22;30743;52.008;5.644;2023-02-28T00:59:02;6.60;99.90
45008;DHT22;30743;52.008;5.644;2023-02-28T01:01:28;6.70;99.90
45008;DHT22;30743;52.008;5.644;2023-02-28T01:03:53;6.90;99.90
45008;DHT22;30743;52.008;5.644;2023-02-28T01:06:19;7.00;99.90
45008;DHT22;30743;52.008;5.644;2023-02-28T01:08:44;7.00;99.90
45008;DHT22;30743;52.008;5.644;2023-02-28T01:11:11;7.10;99.90
45008;DHT22;30743;52.008;5.644;2023-02-28T01:13:37;7.00;99.90
45008;DHT22;30743;52.008;5.644;2023-02-28T01:16:03;6.60;99.90
45008;DHT22;30743;52.008;5.644;2023-02-28T01:18:29;6.60;99.90
45008;DHT22;30743;52.008;5.644;2023-02-28T01:20:54;6.90;99.90
45008;DHT22;30743;52.008;5.644;2023-02-28T01:23:21;7.10;99.90
45008;DHT22;30743;52.008;5.644;2023-02-28T01:25:48;7.00;99.90
45008;DHT22;30743;52.008;5.644;2023-02-28T01:28:14;6.90;99.90
45008;DHT22;30743;52.008;5.644;2023-02-28T01:30:39;7.10;99.90
45008;DHT22;30743;52.008;5.644;2023-02-28T01:33:05;7.00;99.90
45008;DHT22;30743;52.008;5.644;2023-02-28T01:35:35;7.10;99.90
45008;DHT22;30743;52.008;5.644;2023-02-28T01:38:01;7.10;99.90
45008;DHT22;30743;52.008;5.644;2023-02-28T01:40:27;7.20;99.90
45008;DHT22;30743;52.008;5.644;2023-02-28T01:42:52;7.40;99.90
45008;DHT22;30743;52.008;5.644;2023-02-28T01:45:27;7.40;99.90
45008;DHT22;30743;52.008;5.644;2023-02-28T01:48:07;7.50;99.90
45008;DHT22;30743;52.008;5.644;2023-02-28T01:50:39;7.50;99.90
45008;DHT22;30743;52.008;5.644;2023-02-28T01:53:08;7.60;99.90
45008;DHT22;30743;52.008;5.644;2023-02-28T01:55:35;7.70;99.90
45008;DHT22;30743;52.008;5.644;2023-02-28T01:58:04;7.80;99.90
45008;DHT22;30743;52.008;5.644;2023-02-28T02:00:31;7.80;99.90
45008;DHT22;30743;52.008;5.644;2023-02-28T02:02:59;7.80;99.90
45008;DHT22;30743;52.008;5.644;2023-02-28T02:05:28;7.70;99.90
45008;DHT22;30743;52.008;5.644;2023-02-28T02:07:59;7.60;99.90
45008;DHT22;30743;52.008;5.644;2023-02-28T02:10:34;7.70;99.90
45008;DHT22;30743;52.008;5.644;2023-02-28T02:13:25;7.80;99.90
45008;DHT22;30743;52.008;5.644;2023-02-28T02:18:52;7.80;99.90
45008;DHT22;30743;52.008;5.644;2023-02-28T02:27:16;7.70;99.90
45008;DHT22;30743;52.008;5.644;2023-02-28T02:30:11;7.60;99.90
45008;DHT22;30743;52.008;5.644;2023-02-28T02:38:30;7.80;99.90
45008;DHT22;30743;52.008;5.644;2023-02-28T02:43:44;7.70;99.90
45008;DHT22;30743;52.008;5.644;2023-02-28T02:46:18;7.60;99.90
45008;DHT22;30743;52.008;5.644;2023-02-28T02:48:46;7.60;99.90
45008;DHT22;30743;52.008;5.644;2023-02-28T02:51:15;7.80;99.90
45008;DHT22;30743;52.008;5.644;2023-02-28T02:53:49;7.80;99.90
45008;DHT22;30743;52.008;5.644;2023-02-28T02:56:18;7.90;99.90
45008;DHT22;30743;52.008;5.644;2023-02-28T02:58:47;8.00;99.90
45008;DHT22;30743;52.008;5.644;2023-02-28T03:01:18;8.20;99.90
45008;DHT22;30743;52.008;5.644;2023-02-28T03:03:56;8.40;99.90
45008;DHT22;30743;52.008;5.644;2023-02-28T03:06:22;8.50;99.90
45008;DHT22;30743;52.008;5.644;2023-02-28T03:08:47;8.60;99.90
45008;DHT22;30743;52.008;5.644;2023-02-28T03:11:14;8.70;99.90
45008;DHT22;30743;52.008;5.644;2023-02-28T03:14:04;8.80;99.90
45008;DHT22;30743;52.008;5.644;2023-02-28T03:19:40;8.30;99.90
45008;DHT22;30743;52.008;5.644;2023-02-28T03:25:13;8.30;99.90
45008;DHT22;30743;52.008;5.644;2023-02-28T03:30:39;8.50;99.90
45008;DHT22;30743;52.008;5.644;2023-02-28T03:33:13;8.50;99.90
45008;DHT22;30743;52.008;5.644;2023-02-28T03:35:50;8.60;99.90
45008;DHT22;30743;52.008;5.644;2023-02-28T03:38:41;8.80;99.90
45008;DHT22;30743;52.008;5.644;2023-02-28T03:41:19;8.70;99.90
45008;DHT22;30743;52.008;5.644;2023-02-28T03:44:13;8.80;99.90
45008;DHT22;30743;52.008;5.644;2023-02-28T03:46:44;8.90;99.90
45008;DHT22;30743;52.008;5.644;2023-02-28T03:49:30;8.90;99.90
45008;DHT22;30743;52.008;5.644;2023-02-28T03:52:00;8.70;99.90
45008;DHT22;30743;52.008;5.644;2023-02-28T03:54:31;8.70;99.90
45008;DHT22;30743;52.008;5.644;2023-02-28T03:57:12;8.70;99.90
45008;DHT22;30743;52.008;5.644;2023-02-28T03:59:44;8.70;99.90
45008;DHT22;30743;52.008;5.644;2023-02-28T04:02:11;8.60;99.90
45008;DHT22;30743;52.008;5.644;2023-02-28T04:04:36;8.70;99.90
45008;DHT22;30743;52.008;5.644;2023-02-28T04:07:05;8.70;99.90
45008;DHT22;30743;52.008;5.644;2023-02-28T04:09:31;8.60;99.90
45008;DHT22;30743;52.008;5.644;2023-02-28T04:11:57;8.60;99.90
45008;DHT22;30743;52.008;5.644;2023-02-28T04:14:23;8.50;99.90
45008;DHT22;30743;52.008;5.644;2023-02-28T04:16:49;8.50;99.90
45008;DHT22;30743;52.008;5.644;2023-02-28T04:19:16;8.50;99.80
45008;DHT22;30743;52.008;5.644;2023-02-28T04:21:44;8.60;99.90
45008;DHT22;30743;52.008;5.644;2023-02-28T04:24:13;8.50;99.90
45008;DHT22;30743;52.008;5.644;2023-02-28T04:26:46;8.50;99.90
45008;DHT22;30743;52.008;5.644;2023-02-28T04:29:17;8.50;99.90
45008;DHT22;30743;52.008;5.644;2023-02-28T04:31:43;8.50;99.90
45008;DHT22;30743;52.008;5.644;2023-02-28T04:34:08;8.50;99.90
45008;DHT22;30743;52.008;5.644;2023-02-28T04:36:34;8.50;99.90
45008;DHT22;30743;52.008;5.644;2023-02-28T04:39:00;8.60;99.90
45008;DHT22;30743;52.008;5.644;2023-02-28T04:41:26;8.50;99.90
45008;DHT22;30743;52.008;5.644;2023-02-28T04:43:52;8.40;99.90
45008;DHT22;30743;52.008;5.644;2023-02-28T04:46:18;8.20;99.90
45008;DHT22;30743;52.008;5.644;2023-02-28T04:48:44;8.10;99.90
45008;DHT22;30743;52.008;5.644;2023-02-28T04:51:12;8.10;99.90
45008;DHT22;30743;52.008;5.644;2023-02-28T04:53:39;8.00;99.90
45008;DHT22;30743;52.008;5.644;2023-02-28T04:56:06;7.90;99.90
45008;DHT22;30743;52.008;5.644;2023-02-28T04:58:32;7.90;99.90
45008;DHT22;30743;52.008;5.644;2023-02-28T05:01:03;7.80;99.90
45008;DHT22;30743;52.008;5.644;2023-02-28T05:03:29;7.80;99.90
45008;DHT22;30743;52.008;5.644;2023-02-28T05:05:54;7.70;99.90
45008;DHT22;30743;52.008;5.644;2023-02-28T05:08:20;7.70;99.90
45008;DHT22;30743;52.008;5.644;2023-02-28T05:10:45;7.80;99.90
45008;DHT22;30743;52.008;5.644;2023-02-28T05:13:14;7.90;99.90
45008;DHT22;30743;52.008;5.644;2023-02-28T05:15:39;8.10;99.90
45008;DHT22;30743;52.008;5.644;2023-02-28T05:18:05;8.10;99.90
45008;DHT22;30743;52.008;5.644;2023-02-28T05:20:30;8.10;99.90
45008;DHT22;30743;52.008;5.644;2023-02-28T05:22:57;8.20;99.90
45008;DHT22;30743;52.008;5.644;2023-02-28T05:25:24;8.20;99.90
45008;DHT22;30743;52.008;5.644;2023-02-28T05:27:49;8.30;99.90
45008;DHT22;30743;52.008;5.644;2023-02-28T05:30:16;8.40;99.90
45008;DHT22;30743;52.008;5.644;2023-02-28T05:32:41;8.40;99.90
45008;DHT22;30743;52.008;5.644;2023-02-28T05:35:11;8.40;99.90
45008;DHT22;30743;52.008;5.644;2023-02-28T05:37:37;8.50;99.90
45008;DHT22;30743;52.008;5.644;2023-02-28T05:40:04;8.50;99.90
45008;DHT22;30743;52.008;5.644;2023-02-28T05:42:35;8.50;99.90
45008;DHT22;30743;52.008;5.644;2023-02-28T05:45:01;8.60;99.90
45008;DHT22;30743;52.008;5.644;2023-02-28T05:47:26;8.50;99.90
45008;DHT22;30743;52.008;5.644;2023-02-28T05:49:52;8.50;99.90
45008;DHT22;30743;52.008;5.644;2023-02-28T05:52:17;8.50;99.90
45008;DHT22;30743;52.008;5.644;2023-02-28T05:54:43;8.40;99.90
45008;DHT22;30743;52.008;5.644;2023-02-28T05:57:08;8.30;99.90
45008;DHT22;30743;52.008;5.644;2023-02-28T05:59:34;8.30;99.90
45008;DHT22;30743;52.008;5.644;2023-02-28T06:01:59;8.30;99.90
45008;DHT22;30743;52.008;5.644;2023-02-28T06:04:25;8.30;99.90
45008;DHT22;30743;52.008;5.644;2023-02-28T06:06:51;8.40;99.90
45008;DHT22;30743;52.008;5.644;2023-02-28T06:09:17;8.50;99.90
45008;DHT22;30743;52.008;5.644;2023-02-28T06:11:42;8.60;99.90
45008;DHT22;30743;52.008;5.644;2023-02-28T06:14:14;8.70;99.90
45008;DHT22;30743;52.008;5.644;2023-02-28T06:16:40;8.80;99.90
45008;DHT22;30743;52.008;5.644;2023-02-28T06:19:06;8.80;99.90
45008;DHT22;30743;52.008;5.644;2023-02-28T06:21:33;8.90;99.90
45008;DHT22;30743;52.008;5.644;2023-02-28T06:23:58;8.90;99.90
45008;DHT22;30743;52.008;5.644;2023-02-28T06:26:25;9.00;99.90
45008;DHT22;30743;52.008;5.644;2023-02-28T06:28:51;9.00;99.90
45008;DHT22;30743;52.008;5.644;2023-02-28T06:31:17;9.10;99.90
45008;DHT22;30743;52.008;5.644;2023-02-28T06:33:44;9.10;99.90
45008;DHT22;30743;52.008;5.644;2023-02-28T06:36:11;9.10;99.90
45008;DHT22;30743;52.008;5.644;2023-02-28T06:38:37;9.20;99.90
45008;DHT22;30743;52.008;5.644;2023-02-28T06:41:04;9.20;99.90
45008;DHT22;30743;52.008;5.644;2023-02-28T06:43:33;9.20;99.90
45008;DHT22;30743;52.008;5.644;2023-02-28T06:46:00;9.10;99.90
45008;DHT22;30743;52.008;5.644;2023-02-28T06:48:26;9.10;99.90
45008;DHT22;30743;52.008;5.644;2023-02-28T06:51:00;9.20;99.90
45008;DHT22;30743;52.008;5.644;2023-02-28T06:53:26;9.20;99.90
45008;DHT22;30743;52.008;5.644;2023-02-28T06:55:51;9.10;99.90
45008;DHT22;30743;52.008;5.644;2023-02-28T06:58:17;9.10;99.90
45008;DHT22;30743;52.008;5.644;2023-02-28T07:00:44;9.20;99.90
45008;DHT22;30743;52.008;5.644;2023-02-28T07:03:11;9.20;99.90
45008;DHT22;30743;52.008;5.644;2023-02-28T07:05:37;9.30;99.90
45008;DHT22;30743;52.008;5.644;2023-02-28T07:08:04;9.40;99.90
45008;DHT22;30743;52.008;5.644;2023-02-28T07:10:32;9.40;99.90
45008;DHT22;30743;52.008;5.644;2023-02-28T07:12:58;9.40;99.90
45008;DHT22;30743;52.008;5.644;2023-02-28T07:15:24;9.50;99.90
45008;DHT22;30743;52.008;5.644;2023-02-28T07:17:50;9.50;99.90
45008;DHT22;30743;52.008;5.644;2023-02-28T07:20:16;9.60;99.90
45008;DHT22;30743;52.008;5.644;2023-02-28T07:22:41;9.70;99.90
45008;DHT22;30743;52.008;5.644;2023-02-28T07:25:07;9.70;99.50
45008;DHT22;30743;52.008;5.644;2023-02-28T07:27:33;9.80;99.80
45008;DHT22;30743;52.008;5.644;2023-02-28T07:29:59;9.80;99.70
45008;DHT22;30743;52.008;5.644;2023-02-28T07:32:27;9.90;99.40
45008;DHT22;30743;52.008;5.644;2023-02-28T07:34:53;10.80;99.60
45008;DHT22;30743;52.008;5.644;2023-02-28T07:37:18;10.10;99.10
45008;DHT22;30743;52.008;5.644;2023-02-28T07:39:44;10.20;99.00
45008;DHT22;30743;52.008;5.644;2023-02-28T07:42:09;10.10;98.30
45008;DHT22;30743;52.008;5.644;2023-02-28T07:44:37;10.00;97.80
45008;DHT22;30743;52.008;5.644;2023-02-28T07:47:09;9.90;98.00
45008;DHT22;30743;52.008;5.644;2023-02-28T07:49:36;10.10;97.70
45008;DHT22;30743;52.008;5.644;2023-02-28T07:52:03;10.00;97.50
45008;DHT22;30743;52.008;5.644;2023-02-28T07:54:29;10.10;97.30
45008;DHT22;30743;52.008;5.644;2023-02-28T07:56:54;10.20;97.60
45008;DHT22;30743;52.008;5.644;2023-02-28T07:59:20;10.20;97.20
45008;DHT22;30743;52.008;5.644;2023-02-28T08:01:45;10.20;97.30
45008;DHT22;30743;52.008;5.644;2023-02-28T08:04:11;10.30;97.00
45008;DHT22;30743;52.008;5.644;2023-02-28T08:06:36;10.40;97.00
45008;DHT22;30743;52.008;5.644;2023-02-28T08:09:02;10.50;96.80
45008;DHT22;30743;52.008;5.644;2023-02-28T08:11:27;10.60;96.80
45008;DHT22;30743;52.008;5.644;2023-02-28T08:13:54;10.80;96.70
45008;DHT22;30743;52.008;5.644;2023-02-28T08:16:20;11.00;96.60
45008;DHT22;30743;52.008;5.644;2023-02-28T08:18:48;11.20;96.00
45008;DHT22;30743;52.008;5.644;2023-02-28T08:21:14;11.50;96.20
45008;DHT22;30743;52.008;5.644;2023-02-28T08:23:40;11.80;94.90
45008;DHT22;30743;52.008;5.644;2023-02-28T08:26:05;12.00;93.40
45008;DHT22;30743;52.008;5.644;2023-02-28T08:28:31;12.20;92.60
45008;DHT22;30743;52.008;5.644;2023-02-28T08:30:57;12.50;93.10
45008;DHT22;30743;52.008;5.644;2023-02-28T08:33:24;12.70;91.90
45008;DHT22;30743;52.008;5.644;2023-02-28T08:35:55;12.80;88.60
45008;DHT22;30743;52.008;5.644;2023-02-28T08:38:21;12.70;83.30
45008;DHT22;30743;52.008;5.644;2023-02-28T08:40:47;12.30;81.80
45008;DHT22;30743;52.008;5.644;2023-02-28T08:43:13;12.30;83.00
45008;DHT22;30743;52.008;5.644;2023-02-28T08:45:38;12.10;83.60
45008;DHT22;30743;52.008;5.644;2023-02-28T08:48:04;12.10;83.20
45008;DHT22;30743;52.008;5.644;2023-02-28T08:50:29;12.10;83.70
45008;DHT22;30743;52.008;5.644;2023-02-28T08:52:55;11.90;82.60
45008;DHT22;30743;52.008;5.644;2023-02-28T08:55:21;11.90;83.80
45008;DHT22;30743;52.008;5.644;2023-02-28T08:57:46;11.90;82.20
45008;DHT22;30743;52.008;5.644;2023-02-28T09:00:12;12.10;83.40
45008;DHT22;30743;52.008;5.644;2023-02-28T09:02:39;12.00;80.00
45008;DHT22;30743;52.008;5.644;2023-02-28T09:05:06;11.90;80.80
45008;DHT22;30743;52.008;5.644;2023-02-28T09:07:31;12.00;81.50
45008;DHT22;30743;52.008;5.644;2023-02-28T09:09:57;12.10;82.30
45008;DHT22;30743;52.008;5.644;2023-02-28T09:12:27;12.20;81.80
45008;DHT22;30743;52.008;5.644;2023-02-28T09:14:53;12.50;82.00
45008;DHT22;30743;52.008;5.644;2023-02-28T09:17:19;12.70;80.40
45008;DHT22;30743;52.008;5.644;2023-02-28T09:19:47;13.30;76.40
45008;DHT22;30743;52.008;5.644;2023-02-28T09:22:13;14.00;75.10
45008;DHT22;30743;52.008;5.644;2023-02-28T09:24:38;14.50;74.80
45008;DHT22;30743;52.008;5.644;2023-02-28T09:27:04;15.10;72.40
45008;DHT22;30743;52.008;5.644;2023-02-28T09:29:31;15.90;73.60
45008;DHT22;30743;52.008;5.644;2023-02-28T09:31:57;16.60;70.90
45008;DHT22;30743;52.008;5.644;2023-02-28T09:34:26;17.40;68.10
45008;DHT22;30743;52.008;5.644;2023-02-28T09:36:52;18.30;67.20
45008;DHT22;30743;52.008;5.644;2023-02-28T09:39:20;18.90;63.60
45008;DHT22;30743;52.008;5.644;2023-02-28T09:41:51;19.10;60.90
45008;DHT22;30743;52.008;5.644;2023-02-28T09:44:28;19.30;60.80
45008;DHT22;30743;52.008;5.644;2023-02-28T09:46:57;19.30;61.00
45008;DHT22;30743;52.008;5.644;2023-02-28T09:49:37;19.10;62.60
45008;DHT22;30743;52.008;5.644;2023-02-28T09:52:08;19.60;63.00
45008;DHT22;30743;52.008;5.644;2023-02-28T09:54:35;19.80;58.90
45008;DHT22;30743;52.008;5.644;2023-02-28T09:57:14;19.40;62.00
45008;DHT22;30743;52.008;5.644;2023-02-28T09:59:58;19.40;61.20
45008;DHT22;30743;52.008;5.644;2023-02-28T10:02:46;19.50;61.50
45008;DHT22;30743;52.008;5.644;2023-02-28T10:05:23;19.90;60.40
45008;DHT22;30743;52.008;5.644;2023-02-28T10:10:45;21.50;58.10
45008;DHT22;30743;52.008;5.644;2023-02-28T10:13:25;23.00;57.80
45008;DHT22;30743;52.008;5.644;2023-02-28T10:16:01;24.20;55.50
45008;DHT22;30743;52.008;5.644;2023-02-28T10:18:43;24.80;53.30
45008;DHT22;30743;52.008;5.644;2023-02-28T10:21:26;25.10;51.30
45008;DHT22;30743;52.008;5.644;2023-02-28T10:24:10;25.20;50.40
45008;DHT22;30743;52.008;5.644;2023-02-28T10:26:36;24.90;51.70
45008;DHT22;30743;52.008;5.644;2023-02-28T10:29:02;25.20;49.80
45008;DHT22;30743;52.008;5.644;2023-02-28T10:31:28;26.00;50.80
45008;DHT22;30743;52.008;5.644;2023-02-28T10:33:55;27.00;50.60
45008;DHT22;30743;52.008;5.644;2023-02-28T10:36:21;28.30;50.00
45008;DHT22;30743;52.008;5.644;2023-02-28T10:38:48;29.20;47.50
45008;DHT22;30743;52.008;5.644;2023-02-28T10:41:18;29.30;46.10
45008;DHT22;30743;52.008;5.644;2023-02-28T10:43:52;27.60;47.20
45008;DHT22;30743;52.008;5.644;2023-02-28T10:46:19;28.30;46.60
45008;DHT22;30743;52.008;5.644;2023-02-28T10:49:06;27.80;46.60
45008;DHT22;30743;52.008;5.644;2023-02-28T10:51:38;27.60;46.00
45008;DHT22;30743;52.008;5.644;2023-02-28T10:54:04;27.70;47.50
45008;DHT22;30743;52.008;5.644;2023-02-28T10:56:30;27.60;45.60
45008;DHT22;30743;52.008;5.644;2023-02-28T10:59:22;27.60;45.20
45008;DHT22;30743;52.008;5.644;2023-02-28T11:01:48;27.30;47.20
45008;DHT22;30743;52.008;5.644;2023-02-28T11:04:35;27.40;47.20
45008;DHT22;30743;52.008;5.644;2023-02-28T11:07:17;28.10;46.30
45008;DHT22;30743;52.008;5.644;2023-02-28T11:09:50;28.70;47.00
45008;DHT22;30743;52.008;5.644;2023-02-28T11:12:39;29.10;45.00
45008;DHT22;30743;52.008;5.644;2023-02-28T11:15:30;30.00;45.20
45008;DHT22;30743;52.008;5.644;2023-02-28T11:18:24;30.60;43.10
45008;DHT22;30743;52.008;5.644;2023-02-28T11:20:53;31.50;43.70
45008;DHT22;30743;52.008;5.644;2023-02-28T11:23:20;31.90;43.40
45008;DHT22;30743;52.008;5.644;2023-02-28T11:25:51;31.50;42.90
45008;DHT22;30743;52.008;5.644;2023-02-28T11:28:35;30.90;43.90
45008;DHT22;30743;52.008;5.644;2023-02-28T11:31:05;30.90;43.70
45008;DHT22;30743;52.008;5.644;2023-02-28T11:33:37;30.60;43.70
45008;DHT22;30743;52.008;5.644;2023-02-28T11:36:12;30.80;42.90
45008;DHT22;30743;52.008;5.644;2023-02-28T11:38:38;30.10;41.80
45008;DHT22;30743;52.008;5.644;2023-02-28T11:41:30;29.60;42.40
45008;DHT22;30743;52.008;5.644;2023-02-28T11:46:49;29.90;42.50
45008;DHT22;30743;52.008;5.644;2023-02-28T11:55:11;29.90;42.50
45008;DHT22;30743;52.008;5.644;2023-02-28T11:58:03;29.20;43.00
45008;DHT22;30743;52.008;5.644;2023-02-28T12:00:53;29.30;43.10
45008;DHT22;30743;52.008;5.644;2023-02-28T12:06:45;29.40;42.10
45008;DHT22;30743;52.008;5.644;2023-02-28T12:22:58;28.40;44.50
45008;DHT22;30743;52.008;5.644;2023-02-28T12:28:12;30.20;42.00
45008;DHT22;30743;52.008;5.644;2023-02-28T12:30:45;30.30;42.00
45008;DHT22;30743;52.008;5.644;2023-02-28T12:33:17;30.10;41.20
45008;DHT22;30743;52.008;5.644;2023-02-28T12:35:54;30.30;41.80
45008;DHT22;30743;52.008;5.644;2023-02-28T12:38:45;30.00;41.60
45008;DHT22;30743;52.008;5.644;2023-02-28T12:41:18;30.30;41.40
45008;DHT22;30743;52.008;5.644;2023-02-28T12:46:38;30.50;41.40
45008;DHT22;30743;52.008;5.644;2023-02-28T12:49:15;29.20;41.30
45008;DHT22;30743;52.008;5.644;2023-02-28T12:51:43;29.20;42.40
45008;DHT22;30743;52.008;5.644;2023-02-28T12:54:25;29.50;42.00
45008;DHT22;30743;52.008;5.644;2023-02-28T12:57:06;30.00;41.40
45008;DHT22;30743;52.008;5.644;2023-02-28T12:59:48;29.90;40.90
45008;DHT22;30743;52.008;5.644;2023-02-28T13:02:29;29.00;40.40
45008;DHT22;30743;52.008;5.644;2023-02-28T13:05:32;29.10;42.60
45008;DHT22;30743;52.008;5.644;2023-02-28T13:11:07;30.60;41.80
45008;DHT22;30743;52.008;5.644;2023-02-28T13:13:33;31.10;40.20
45008;DHT22;30743;52.008;5.644;2023-02-28T13:16:03;31.30;40.10
45008;DHT22;30743;52.008;5.644;2023-02-28T13:18:38;31.50;41.20
45008;DHT22;30743;52.008;5.644;2023-02-28T13:21:06;30.40;39.60
45008;DHT22;30743;52.008;5.644;2023-02-28T13:26:12;27.30;40.40
45008;DHT22;30743;52.008;5.644;2023-02-28T13:28:59;25.50;41.60
45008;DHT22;30743;52.008;5.644;2023-02-28T13:31:24;25.40;42.50
45008;DHT22;30743;52.008;5.644;2023-02-28T13:38:49;27.60;42.70
45008;DHT22;30743;52.008;5.644;2023-02-28T13:44:04;28.70;40.70
45008;DHT22;30743;52.008;5.644;2023-02-28T13:46:32;28.60;41.20
45008;DHT22;30743;52.008;5.644;2023-02-28T13:49:18;26.60;41.70
45008;DHT22;30743;52.008;5.644;2023-02-28T13:51:46;26.00;41.80
45008;DHT22;30743;52.008;5.644;2023-02-28T14:05:25;22.90;44.80
45008;DHT22;30743;52.008;5.644;2023-02-28T14:08:02;23.40;44.70
45008;DHT22;30743;52.008;5.644;2023-02-28T14:13:00;24.30;44.90
45008;DHT22;30743;52.008;5.644;2023-02-28T14:15:46;24.60;43.60
45008;DHT22;30743;52.008;5.644;2023-02-28T14:18:22;24.40;43.00
45008;DHT22;30743;52.008;5.644;2023-02-28T14:20:49;25.30;43.60
45008;DHT22;30743;52.008;5.644;2023-02-28T14:26:27;25.90;43.00
45008;DHT22;30743;52.008;5.644;2023-02-28T14:31:41;26.00;41.50
45008;DHT22;30743;52.008;5.644;2023-02-28T14:37:10;24.20;42.80
45008;DHT22;30743;52.008;5.644;2023-02-28T14:39:41;23.70;44.10
45008;DHT22;30743;52.008;5.644;2023-02-28T14:44:56;24.70;44.30
45008;DHT22;30743;52.008;5.644;2023-02-28T14:47:24;24.00;43.50
45008;DHT22;30743;52.008;5.644;2023-02-28T14:49:51;24.10;43.60
45008;DHT22;30743;52.008;5.644;2023-02-28T14:52:25;24.50;43.90
45008;DHT22;30743;52.008;5.644;2023-02-28T14:54:54;23.30;43.50
45008;DHT22;30743;52.008;5.644;2023-02-28T14:57:25;23.60;44.40
45008;DHT22;30743;52.008;5.644;2023-02-28T15:00:25;24.00;44.40
45008;DHT22;30743;52.008;5.644;2023-02-28T15:02:50;24.00;43.50
45008;DHT22;30743;52.008;5.644;2023-02-28T15:05:28;23.80;44.40
45008;DHT22;30743;52.008;5.644;2023-02-28T15:08:09;22.00;44.70
45008;DHT22;30743;52.008;5.644;2023-02-28T15:10:35;21.30;46.00
45008;DHT22;30743;52.008;5.644;2023-02-28T15:13:06;21.70;46.60
45008;DHT22;30743;52.008;5.644;2023-02-28T15:15:54;21.70;46.70
45008;DHT22;30743;52.008;5.644;2023-02-28T15:20:47;21.90;46.60
45008;DHT22;30743;52.008;5.644;2023-02-28T15:23:14;22.30;45.90
45008;DHT22;30743;52.008;5.644;2023-02-28T15:25:41;22.50;46.60
45008;DHT22;30743;52.008;5.644;2023-02-28T15:28:13;22.70;45.80
45008;DHT22;30743;52.008;5.644;2023-02-28T15:30:39;21.30;46.30
45008;DHT22;30743;52.008;5.644;2023-02-28T15:33:23;19.80;47.20
45008;DHT22;30743;52.008;5.644;2023-02-28T15:35:49;17.90;49.00
45008;DHT22;30743;52.008;5.644;2023-02-28T15:40:51;17.50;51.00
45008;DHT22;30743;52.008;5.644;2023-02-28T15:43:27;17.20;50.70
45008;DHT22;30743;52.008;5.644;2023-02-28T15:46:02;17.30;49.50
45008;DHT22;30743;52.008;5.644;2023-02-28T15:48:31;17.30;50.00
45008;DHT22;30743;52.008;5.644;2023-02-28T15:51:31;16.80;51.00
45008;DHT22;30743;52.008;5.644;2023-02-28T15:54:01;16.80;51.50
45008;DHT22;30743;52.008;5.644;2023-02-28T15:56:32;17.20;51.20
45008;DHT22;30743;52.008;5.644;2023-02-28T15:59:05;17.90;51.60
45008;DHT22;30743;52.008;5.644;2023-02-28T16:01:33;18.50;50.40
45008;DHT22;30743;52.008;5.644;2023-02-28T16:04:03;18.90;50.50
45008;DHT22;30743;52.008;5.644;2023-02-28T16:06:41;18.70;49.60
45008;DHT22;30743;52.008;5.644;2023-02-28T16:09:11;18.50;49.90
45008;DHT22;30743;52.008;5.644;2023-02-28T16:11:38;18.20;49.70
45008;DHT22;30743;52.008;5.644;2023-02-28T16:14:04;18.40;50.60
45008;DHT22;30743;52.008;5.644;2023-02-28T16:16:31;18.50;50.30
45008;DHT22;30743;52.008;5.644;2023-02-28T16:18:57;18.10;51.20
45008;DHT22;30743;52.008;5.644;2023-02-28T16:21:24;17.90;50.00
45008;DHT22;30743;52.008;5.644;2023-02-28T16:23:50;18.20;50.80
45008;DHT22;30743;52.008;5.644;2023-02-28T16:26:21;18.40;50.50
45008;DHT22;30743;52.008;5.644;2023-02-28T16:28:48;18.20;50.40
45008;DHT22;30743;52.008;5.644;2023-02-28T16:31:14;17.30;50.80
45008;DHT22;30743;52.008;5.644;2023-02-28T16:33:42;16.30;52.10
45008;DHT22;30743;52.008;5.644;2023-02-28T16:36:21;15.70;52.70
45008;DHT22;30743;52.008;5.644;2023-02-28T16:38:50;14.90;54.20
45008;DHT22;30743;52.008;5.644;2023-02-28T16:41:21;14.10;54.90
45008;DHT22;30743;52.008;5.644;2023-02-28T16:43:49;13.50;55.80
45008;DHT22;30743;52.008;5.644;2023-02-28T16:46:16;13.20;56.50
45008;DHT22;30743;52.008;5.644;2023-02-28T16:48:43;12.80;57.10
45008;DHT22;30743;52.008;5.644;2023-02-28T16:51:15;12.50;57.90
45008;DHT22;30743;52.008;5.644;2023-02-28T16:53:41;12.10;59.00
45008;DHT22;30743;52.008;5.644;2023-02-28T16:58:42;11.60;59.70
45008;DHT22;30743;52.008;5.644;2023-02-28T17:01:07;11.30;59.70
45008;DHT22;30743;52.008;5.644;2023-02-28T17:03:33;11.00;59.70
45008;DHT22;30743;52.008;5.644;2023-02-28T17:05:58;10.80;59.90
45008;DHT22;30743;52.008;5.644;2023-02-28T17:08:24;10.80;61.40
45008;DHT22;30743;52.008;5.644;2023-02-28T17:10:49;10.80;61.40
45008;DHT22;30743;52.008;5.644;2023-02-28T17:13:15;10.60;60.80
45008;DHT22;30743;52.008;5.644;2023-02-28T17:15:41;10.50;61.10
45008;DHT22;30743;52.008;5.644;2023-02-28T17:18:06;10.50;61.50
45008;DHT22;30743;52.008;5.644;2023-02-28T17:20:34;10.50;61.80
45008;DHT22;30743;52.008;5.644;2023-02-28T17:23:00;10.50;61.20
45008;DHT22;30743;52.008;5.644;2023-02-28T17:25:26;10.50;60.90
45008;DHT22;30743;52.008;5.644;2023-02-28T17:27:51;10.70;61.00
45008;DHT22;30743;52.008;5.644;2023-02-28T17:30:24;10.70;61.00
45008;DHT22;30743;52.008;5.644;2023-02-28T17:32:50;10.90;61.40
45008;DHT22;30743;52.008;5.644;2023-02-28T17:35:15;11.10;60.80
45008;DHT22;30743;52.008;5.644;2023-02-28T17:37:42;11.20;60.70
45008;DHT22;30743;52.008;5.644;2023-02-28T17:40:20;11.00;60.20